Time;durP1;ratioP1;P1;durP2;ratioP2;P2;SDS_P1;SDS_P2;PMS_P1;PMS_P2;Temp;Humidity;BMP_temperature;BMP_pressure;BME280_temperature;BME280_humidity;BME280_pressure;Samples;Min_cycle;Max_cycle;Signal;HPM_P1;HPM_P2
2021/12/24 00:01:46;;;;;;;5.00;4.10;;;8.80;91.60;;;;;;5141245;27;20845;-46
2021/12/24 00:04:12;;;;;;;4.37;3.80;;;8.80;91.70;;;;;;5141636;27;20212;-46
2021/12/24 00:06:41;;;;;;;4.37;3.70;;;8.80;91.80;;;;;;5140663;27;20826;-46
2021/12/24 00:09:06;;;;;;;6.17;4.30;;;8.80;91.80;;;;;;5141053;27;20680;-46
2021/12/24 00:11:33;;;;;;;3.90;3.60;;;8.80;91.90;;;;;;5141062;27;20446;-46
2021/12/24 00:14:01;;;;;;;4.27;3.87;;;8.80;91.90;;;;;;5131873;27;20185;-46
2021/12/24 00:16:42;;;;;;;5.97;4.40;;;8.80;91.90;;;;;;5123745;27;20509;-46
2021/12/24 00:19:20;;;;;;;5.40;3.90;;;8.90;91.90;;;;;;5120677;28;20421;-46
2021/12/24 00:22:19;;;;;;;5.03;3.90;;;8.90;92.00;;;;;;5120913;28;20526;-46
2021/12/24 00:35:33;;;;;;;4.60;3.80;;;8.90;92.30;;;;;;5120016;28;20416;-46
2021/12/24 00:38:03;;;;;;;5.80;3.87;;;8.90;92.40;;;;;;5120263;28;20461;-45
2021/12/24 00:40:38;;;;;;;4.50;4.00;;;8.90;92.40;;;;;;5120160;28;20409;-46
2021/12/24 00:43:04;;;;;;;4.43;3.70;;;8.90;92.40;;;;;;5119635;28;20425;-46
2021/12/24 00:45:32;;;;;;;5.23;4.03;;;8.90;92.40;;;;;;5119436;28;20431;-46
2021/12/24 00:48:00;;;;;;;6.83;4.87;;;8.90;92.50;;;;;;5119659;28;20473;-46
2021/12/24 00:50:54;;;;;;;4.03;3.63;;;8.80;92.40;;;;;;5120240;28;20981;-46
2021/12/24 00:56:08;;;;;;;5.30;4.20;;;8.80;92.40;;;;;;5119168;28;20693;-45
2021/12/24 00:58:33;;;;;;;4.90;3.73;;;8.80;92.40;;;;;;5118198;28;20468;-45
2021/12/24 01:01:02;;;;;;;5.20;4.60;;;8.80;92.30;;;;;;5118611;28;20413;-46
2021/12/24 01:03:28;;;;;;;5.17;3.90;;;8.80;92.30;;;;;;5118119;28;20199;-46
2021/12/24 01:05:53;;;;;;;5.70;4.03;;;8.80;92.30;;;;;;5118339;28;20418;-45
2021/12/24 01:08:24;;;;;;;4.63;4.13;;;8.80;92.30;;;;;;5118275;28;20648;-46
2021/12/24 01:10:53;;;;;;;4.33;3.50;;;8.80;92.30;;;;;;5101205;28;20450;-46
2021/12/24 01:13:19;;;;;;;5.30;4.53;;;8.80;92.20;;;;;;5101671;28;20433;-46
2021/12/24 01:18:42;;;;;;;4.40;3.93;;;8.80;92.20;;;;;;5118347;28;20962;-46
2021/12/24 01:21:34;;;;;;;4.27;3.43;;;8.80;92.20;;;;;;5119325;28;20441;-46
2021/12/24 01:24:03;;;;;;;5.80;3.60;;;8.80;92.30;;;;;;5119068;28;20534;-46
2021/12/24 01:26:48;;;;;;;4.40;3.80;;;8.80;92.20;;;;;;5117882;28;20398;-45
2021/12/24 01:40:06;;;;;;;4.40;3.70;;;8.70;92.10;;;;;;5117771;28;20411;-46
2021/12/24 01:42:45;;;;;;;4.90;3.97;;;8.70;92.10;;;;;;5117331;28;20822;-46
2021/12/24 01:45:13;;;;;;;5.00;4.10;;;8.70;92.10;;;;;;5117328;28;20697;-46
2021/12/24 01:47:39;;;;;;;5.70;3.80;;;8.70;92.10;;;;;;5118179;28;20462;-46
2021/12/24 01:50:06;;;;;;;5.83;4.13;;;8.70;92.20;;;;;;5118785;28;20895;-46
2021/12/24 01:52:32;;;;;;;3.67;3.37;;;8.70;92.20;;;;;;5118794;28;20295;-46
2021/12/24 01:54:57;;;;;;;5.70;4.17;;;8.70;92.20;;;;;;5119173;28;20479;-46
2021/12/24 01:57:23;;;;;;;4.63;3.70;;;8.60;92.20;;;;;;5100069;28;20212;-46
2021/12/24 01:59:50;;;;;;;3.60;3.27;;;8.60;92.20;;;;;;5118423;28;20184;-46
2021/12/24 02:02:15;;;;;;;4.17;3.70;;;8.60;92.30;;;;;;5100843;28;20249;-46
2021/12/24 02:04:41;;;;;;;5.87;4.00;;;8.60;92.30;;;;;;5118856;28;20414;-46
2021/12/24 02:07:07;;;;;;;3.80;3.40;;;8.60;92.30;;;;;;5118427;28;20187;-46
2021/12/24 02:09:34;;;;;;;3.97;3.37;;;8.60;92.30;;;;;;5118807;28;20271;-46
2021/12/24 02:12:05;;;;;;;4.17;3.43;;;8.60;92.40;;;;;;5118595;28;20412;-46
2021/12/24 02:14:35;;;;;;;6.10;3.50;;;8.60;92.40;;;;;;5101592;28;20425;-46
2021/12/24 02:30:43;;;;;;;3.97;3.07;;;8.70;92.40;;;;;;5121787;28;20437;-46
2021/12/24 02:33:09;;;;;;;4.33;3.43;;;8.70;92.30;;;;;;5122407;28;20478;-46
2021/12/24 02:35:35;;;;;;;3.10;2.80;;;8.70;92.30;;;;;;5122399;28;20439;-45
2021/12/24 02:38:02;;;;;;;3.33;2.90;;;8.70;92.20;;;;;;5122338;28;20242;-46
2021/12/24 02:40:29;;;;;;;3.90;3.30;;;8.70;92.20;;;;;;5122079;28;20681;-46
2021/12/24 02:42:56;;;;;;;3.93;3.37;;;8.70;92.20;;;;;;5122193;28;20687;-46
2021/12/24 02:45:23;;;;;;;5.10;3.20;;;8.70;92.20;;;;;;5122126;28;20486;-46
2021/12/24 02:56:01;;;;;;;3.77;3.00;;;8.80;92.20;;;;;;5122041;28;20467;-46
2021/12/24 02:58:27;;;;;;;5.07;4.03;;;8.80;92.10;;;;;;5121588;28;20485;-46
2021/12/24 03:00:53;;;;;;;3.60;3.07;;;8.80;92.10;;;;;;5104015;28;20429;-46
2021/12/24 03:03:18;;;;;;;3.13;2.80;;;8.80;92.10;;;;;;5121864;28;20433;-46
2021/12/24 03:05:44;;;;;;;5.20;3.00;;;8.80;92.00;;;;;;5121732;28;20703;-46
2021/12/24 03:08:10;;;;;;;4.20;2.67;;;8.80;92.00;;;;;;5121475;28;20183;-46
2021/12/24 03:10:36;;;;;;;4.93;3.40;;;8.80;92.00;;;;;;5103536;28;20188;-46
2021/12/24 03:13:03;;;;;;;3.87;2.90;;;8.80;92.10;;;;;;5121801;28;20190;-45
2021/12/24 03:15:32;;;;;;;4.63;3.83;;;8.80;92.10;;;;;;5121437;28;20421;-46
2021/12/24 03:17:59;;;;;;;4.93;3.47;;;8.80;92.10;;;;;;5121230;28;20468;-46
2021/12/24 03:20:28;;;;;;;7.47;3.33;;;8.80;92.30;;;;;;5121809;28;20433;-45
2021/12/24 03:23:21;;;;;;;3.87;3.47;;;8.80;92.30;;;;;;5121659;28;20408;-46
2021/12/24 03:25:47;;;;;;;4.20;3.20;;;8.80;92.30;;;;;;5121412;28;20779;-46
2021/12/24 03:28:12;;;;;;;4.63;3.07;;;8.80;92.40;;;;;;5121788;28;20405;-46
2021/12/24 03:30:38;;;;;;;5.10;3.77;;;8.80;92.30;;;;;;5121085;28;20247;-46
2021/12/24 03:33:04;;;;;;;4.40;3.77;;;8.80;92.30;;;;;;5121637;28;20176;-45
2021/12/24 03:35:30;;;;;;;3.53;2.87;;;8.80;92.30;;;;;;5121174;28;20195;-46
2021/12/24 03:37:55;;;;;;;4.70;3.63;;;8.80;92.30;;;;;;5120980;28;20222;-46
2021/12/24 03:40:21;;;;;;;3.80;3.10;;;8.80;92.30;;;;;;5120999;28;20169;-46
2021/12/24 03:42:46;;;;;;;4.57;3.50;;;8.80;92.40;;;;;;5120538;28;20168;-46
2021/12/24 03:45:40;;;;;;;6.20;4.30;;;8.80;92.40;;;;;;5120869;28;20263;-45
2021/12/24 03:48:15;;;;;;;4.60;2.83;;;8.80;92.50;;;;;;5120823;28;20220;-46
2021/12/24 03:50:57;;;;;;;3.97;3.13;;;8.80;92.50;;;;;;5119437;28;20859;-46
2021/12/24 03:56:07;;;;;;;3.50;3.20;;;8.80;92.50;;;;;;5119745;28;20440;-46
2021/12/24 03:58:33;;;;;;;6.23;3.53;;;8.80;92.50;;;;;;5101127;28;20910;-46
2021/12/24 04:00:58;;;;;;;4.30;3.47;;;8.80;92.50;;;;;;5118394;28;20574;-46
2021/12/24 04:03:24;;;;;;;4.00;3.50;;;8.80;92.50;;;;;;5117942;28;20207;-45
2021/12/24 04:05:49;;;;;;;3.33;3.03;;;8.80;92.50;;;;;;5119282;28;20574;-45
2021/12/24 04:08:16;;;;;;;3.80;3.20;;;8.80;92.50;;;;;;5121053;28;20210;-46
2021/12/24 04:10:42;;;;;;;3.57;2.43;;;8.80;92.50;;;;;;5120141;28;20192;-46
2021/12/24 04:13:10;;;;;;;4.90;3.17;;;8.80;92.50;;;;;;5120973;28;20444;-46
2021/12/24 04:15:36;;;;;;;5.67;3.33;;;8.80;92.60;;;;;;5120432;28;20430;-46
2021/12/24 04:18:15;;;;;;;5.10;3.20;;;8.80;92.60;;;;;;5119750;28;20496;-46
2021/12/24 04:26:09;;;;;;;4.53;3.10;;;8.80;93.10;;;;;;5120213;28;20466;-46
2021/12/24 04:28:35;;;;;;;4.67;3.20;;;8.80;93.30;;;;;;5120797;28;20410;-39
2021/12/24 04:31:02;;;;;;;3.70;3.13;;;8.80;93.50;;;;;;5120181;28;20566;-37
2021/12/24 04:33:33;;;;;;;2.93;2.63;;;8.90;93.60;;;;;;5120276;28;20193;-38
2021/12/24 04:36:36;;;;;;;6.80;3.80;;;8.90;93.70;;;;;;5120077;28;20434;-38
2021/12/24 05:03:34;;;;;;;4.07;3.07;;;9.20;93.70;;;;;;5119320;28;20783;-37
2021/12/24 05:08:58;;;;;;;4.23;3.73;;;9.20;93.70;;;;;;5119240;28;20413;-43
2021/12/24 05:11:24;;;;;;;3.80;3.30;;;9.20;93.70;;;;;;5119517;28;20435;-42
2021/12/24 05:13:52;;;;;;;4.17;3.67;;;9.30;93.80;;;;;;5119021;28;20434;-43
2021/12/24 05:21:35;;;;;;;5.70;3.83;;;9.30;93.70;;;;;;5118836;28;20433;-44
2021/12/24 05:24:02;;;;;;;4.20;3.80;;;9.30;94.00;;;;;;5118942;28;20475;-42
2021/12/24 05:26:29;;;;;;;4.70;3.70;;;9.30;93.60;;;;;;5119729;28;20820;-43
2021/12/24 05:28:56;;;;;;;7.20;3.93;;;9.40;93.60;;;;;;5119256;28;20500;-44
2021/12/24 05:31:22;;;;;;;4.00;3.50;;;9.40;93.60;;;;;;5119722;28;20820;-43
2021/12/24 05:33:48;;;;;;;4.20;3.50;;;9.40;93.60;;;;;;5119201;28;20517;-43
2021/12/24 05:36:13;;;;;;;4.97;3.50;;;9.40;93.60;;;;;;5119593;28;20270;-42
2021/12/24 05:38:41;;;;;;;4.57;3.17;;;9.40;93.60;;;;;;5119107;28;20207;-43
2021/12/24 05:41:07;;;;;;;4.23;3.83;;;9.40;93.60;;;;;;5101918;28;20184;-44
2021/12/24 05:43:33;;;;;;;4.43;3.80;;;9.40;93.90;;;;;;5119200;28;20424;-44
2021/12/24 05:45:59;;;;;;;3.90;3.60;;;9.40;93.50;;;;;;5118736;28;20187;-46
2021/12/24 05:48:24;;;;;;;4.13;3.60;;;9.50;93.50;;;;;;5119056;28;20910;-44
2021/12/24 05:50:50;;;;;;;4.60;3.33;;;9.50;93.50;;;;;;5119155;28;20622;-43
2021/12/24 05:53:16;;;;;;;5.00;3.67;;;9.50;93.40;;;;;;5118702;28;20425;-42
2021/12/24 05:55:42;;;;;;;4.43;3.90;;;9.50;93.40;;;;;;5118756;28;20179;-42
2021/12/24 05:58:08;;;;;;;4.93;3.90;;;9.50;93.40;;;;;;5084253;28;20476;-43
2021/12/24 06:00:39;;;;;;;6.03;3.77;;;9.50;93.30;;;;;;5118693;28;20213;-46
2021/12/24 06:03:06;;;;;;;3.30;3.00;;;9.50;93.30;;;;;;5118653;28;20525;-42
2021/12/24 06:05:35;;;;;;;6.07;3.70;;;9.50;93.30;;;;;;5118824;28;20736;-43
2021/12/24 06:08:02;;;;;;;4.07;3.40;;;9.50;93.30;;;;;;5118588;28;20516;-43
2021/12/24 06:10:27;;;;;;;4.67;3.43;;;9.50;93.30;;;;;;5118597;28;20752;-42
2021/12/24 06:12:53;;;;;;;4.60;3.63;;;9.50;93.30;;;;;;5117655;28;20415;-44
2021/12/24 06:15:23;;;;;;;4.13;3.73;;;9.50;93.30;;;;;;5118265;28;20172;-44
2021/12/24 06:17:52;;;;;;;9.93;4.90;;;9.50;93.30;;;;;;5118776;28;20265;-44
2021/12/24 06:20:21;;;;;;;4.30;3.90;;;9.50;93.30;;;;;;5118360;28;20517;-43
2021/12/24 06:22:47;;;;;;;3.50;3.20;;;9.50;93.40;;;;;;5118301;28;20410;-42
2021/12/24 06:25:14;;;;;;;4.47;3.97;;;9.40;93.30;;;;;;5117347;28;20446;-44
2021/12/24 06:27:39;;;;;;;4.80;4.00;;;9.40;93.40;;;;;;5116478;28;20783;-42
2021/12/24 06:30:07;;;;;;;6.90;4.30;;;9.40;93.50;;;;;;5115706;28;20440;-42
2021/12/24 06:32:36;;;;;;;4.33;3.90;;;9.40;93.50;;;;;;5115471;28;20183;-43
2021/12/24 06:35:03;;;;;;;4.20;3.80;;;9.40;93.60;;;;;;5115040;28;20448;-44
2021/12/24 06:37:28;;;;;;;4.37;3.97;;;9.40;93.70;;;;;;5115333;28;20462;-43
2021/12/24 06:39:55;;;;;;;3.83;3.50;;;9.30;93.70;;;;;;5116088;28;20432;-42
2021/12/24 06:42:24;;;;;;;6.17;4.40;;;9.30;93.80;;;;;;5118057;28;20263;-43
2021/12/24 06:44:50;;;;;;;4.17;3.77;;;9.30;93.80;;;;;;5118151;28;20453;-44
2021/12/24 06:47:15;;;;;;;4.53;3.43;;;9.30;93.90;;;;;;5116906;28;20496;-43
2021/12/24 06:49:44;;;;;;;4.47;3.80;;;9.30;94.00;;;;;;5117369;28;20188;-43
2021/12/24 06:52:09;;;;;;;4.27;3.70;;;9.30;94.00;;;;;;5116152;28;20588;-43
2021/12/24 06:54:35;;;;;;;4.90;4.40;;;9.30;94.00;;;;;;5115527;28;20455;-42
2021/12/24 06:57:01;;;;;;;5.23;4.10;;;9.30;94.10;;;;;;5114112;28;20585;-43
2021/12/24 06:59:27;;;;;;;5.20;3.63;;;9.30;94.00;;;;;;5115087;28;20332;-42
2021/12/24 07:01:53;;;;;;;4.20;3.47;;;9.30;94.00;;;;;;5115164;28;20414;-42
2021/12/24 07:04:18;;;;;;;6.20;3.83;;;9.30;94.00;;;;;;5115074;28;20702;-44
2021/12/24 07:06:45;;;;;;;5.00;4.23;;;9.30;94.00;;;;;;5115481;28;20172;-44
2021/12/24 07:09:15;;;;;;;4.90;3.90;;;9.30;94.00;;;;;;5114415;28;20183;-43
2021/12/24 07:11:41;;;;;;;3.70;3.40;;;9.30;94.00;;;;;;5099386;28;20397;-41
2021/12/24 07:14:07;;;;;;;4.57;4.17;;;9.30;94.10;;;;;;5116495;28;20425;-41
2021/12/24 07:16:32;;;;;;;4.20;3.80;;;9.30;94.10;;;;;;5118108;28;20475;-42
2021/12/24 07:18:58;;;;;;;4.13;3.70;;;9.30;94.10;;;;;;5120594;28;20199;-42
2021/12/24 07:21:24;;;;;;;3.90;3.50;;;9.30;94.10;;;;;;5120873;28;20176;-42
2021/12/24 07:23:49;;;;;;;4.50;3.90;;;9.30;94.10;;;;;;5120000;28;20406;-42
2021/12/24 07:26:17;;;;;;;4.13;3.73;;;9.30;94.10;;;;;;5119163;28;20177;-42
2021/12/24 07:28:43;;;;;;;4.67;3.80;;;9.30;94.10;;;;;;5119117;28;20172;-44
2021/12/24 07:31:08;;;;;;;4.70;4.27;;;9.30;94.20;;;;;;5118928;28;20444;-42
2021/12/24 07:33:34;;;;;;;5.17;4.67;;;9.30;94.30;;;;;;5119420;28;20183;-42
2021/12/24 07:36:00;;;;;;;5.20;4.50;;;9.30;94.30;;;;;;5119293;28;20176;-43
2021/12/24 07:38:26;;;;;;;6.27;4.00;;;9.40;94.30;;;;;;5119930;28;20555;-42
2021/12/24 07:40:52;;;;;;;5.50;4.10;;;9.30;94.30;;;;;;5118254;28;20406;-42
2021/12/24 07:43:19;;;;;;;4.67;4.20;;;9.30;94.40;;;;;;5118419;28;20169;-44
2021/12/24 07:45:46;;;;;;;4.40;4.00;;;9.40;94.40;;;;;;5117852;28;20171;-41
2021/12/24 07:48:15;;;;;;;13.13;4.73;;;9.40;94.40;;;;;;5097214;28;20628;-44
2021/12/24 07:53:15;;;;;;;6.63;3.67;;;12.80;99.90;;;;;;5099488;28;20564;-45
2021/12/24 07:55:41;;;;;;;8.43;2.97;;;14.30;96.40;;;;;;5100102;28;20415;-45
2021/12/24 07:58:08;;;;;;;6.30;3.07;;;15.20;93.40;;;;;;5098682;28;20484;-46
2021/12/24 08:00:35;;;;;;;6.03;2.40;;;15.80;91.60;;;;;;5100290;28;20479;-44
2021/12/24 08:03:02;;;;;;;4.23;2.43;;;16.30;90.30;;;;;;5099969;28;20435;-45
2021/12/24 08:05:30;;;;;;;4.80;3.10;;;16.60;88.50;;;;;;5099313;28;20422;-44
2021/12/24 08:07:55;;;;;;;5.57;3.20;;;17.00;86.70;;;;;;5099149;28;20463;-46
2021/12/24 08:10:24;;;;;;;3.63;2.80;;;17.20;84.80;;;;;;5099952;28;20452;-44
2021/12/24 08:12:51;;;;;;;6.80;3.70;;;17.20;82.90;;;;;;5098349;28;20334;-43
2021/12/24 08:15:17;;;;;;;3.90;3.23;;;16.70;79.60;;;;;;5080934;28;20414;-42
2021/12/24 08:17:44;;;;;;;4.40;3.03;;;15.90;78.50;;;;;;5097537;28;20868;-42
2021/12/24 08:20:11;;;;;;;8.43;3.87;;;15.10;78.20;;;;;;5079628;28;20480;-44
2021/12/24 08:22:37;;;;;;;4.40;3.90;;;14.30;78.60;;;;;;5097193;28;20438;-44
2021/12/24 08:25:06;;;;;;;3.87;3.47;;;13.60;80.00;;;;;;5096424;28;20419;-42
2021/12/24 08:27:38;;;;;;;3.90;3.50;;;13.00;81.50;;;;;;5095246;28;20418;-41
2021/12/24 08:30:09;;;;;;;5.30;3.73;;;12.50;82.80;;;;;;5096317;28;20434;-41
2021/12/24 08:32:39;;;;;;;3.63;3.33;;;12.10;84.20;;;;;;5096716;28;20659;-43
2021/12/24 08:35:13;;;;;;;5.60;3.13;;;11.80;85.80;;;;;;5095588;28;20451;-42
2021/12/24 08:37:42;;;;;;;4.07;3.67;;;11.50;87.10;;;;;;5095210;28;20762;-41
2021/12/24 08:40:09;;;;;;;4.70;4.20;;;11.30;88.10;;;;;;5095593;28;20426;-41
2021/12/24 08:42:35;;;;;;;4.90;3.90;;;11.10;89.20;;;;;;5095790;28;20823;-42
2021/12/24 08:45:00;;;;;;;3.97;3.43;;;10.90;90.00;;;;;;5096498;28;20447;-42
2021/12/24 08:47:26;;;;;;;4.30;3.77;;;10.80;90.50;;;;;;5096393;28;20224;-43
2021/12/24 08:49:53;;;;;;;3.50;3.13;;;10.70;90.90;;;;;;5097657;28;20222;-42
2021/12/24 08:52:19;;;;;;;4.17;3.80;;;10.50;91.20;;;;;;5079258;28;20492;-46
2021/12/24 08:54:45;;;;;;;3.90;3.50;;;10.40;91.60;;;;;;5096320;28;20188;-41
2021/12/24 08:57:10;;;;;;;4.10;3.70;;;10.40;91.90;;;;;;5094617;28;20210;-42
2021/12/24 08:59:36;;;;;;;4.10;3.57;;;10.30;92.40;;;;;;5094153;28;20528;-41
2021/12/24 09:02:03;;;;;;;4.63;4.13;;;10.20;92.70;;;;;;5095163;28;20443;-41
2021/12/24 09:04:29;;;;;;;4.40;4.00;;;10.20;93.00;;;;;;5095610;28;20416;-42
2021/12/24 09:06:55;;;;;;;3.90;3.30;;;10.10;93.20;;;;;;5094941;28;20434;-42
2021/12/24 09:09:20;;;;;;;4.87;4.23;;;10.10;93.40;;;;;;5098505;28;20488;-42
2021/12/24 09:11:47;;;;;;;4.67;4.10;;;10.10;93.70;;;;;;5099649;28;20177;-41
2021/12/24 09:14:18;;;;;;;3.40;3.10;;;10.00;93.80;;;;;;5099113;28;20263;-43
2021/12/24 09:16:47;;;;;;;5.30;3.63;;;10.00;94.10;;;;;;5098596;28;20487;-42
2021/12/24 09:19:16;;;;;;;4.13;3.80;;;10.00;94.50;;;;;;5097174;28;20519;-43
2021/12/24 09:21:42;;;;;;;5.27;3.83;;;9.90;95.00;;;;;;5096993;28;20414;-42
2021/12/24 09:24:09;;;;;;;4.70;3.60;;;9.90;95.10;;;;;;5097929;28;20425;-44
2021/12/24 09:26:36;;;;;;;4.00;3.60;;;9.80;95.10;;;;;;5098734;28;20259;-42
2021/12/24 09:29:04;;;;;;;4.30;3.87;;;9.80;95.20;;;;;;5097672;28;20430;-43
2021/12/24 09:31:30;;;;;;;4.83;3.83;;;9.80;95.30;;;;;;5097513;28;20677;-43
2021/12/24 09:33:59;;;;;;;4.33;3.73;;;9.80;95.40;;;;;;5102144;28;20448;-42
2021/12/24 09:36:26;;;;;;;4.30;3.30;;;9.80;95.50;;;;;;5105583;28;20186;-42
2021/12/24 09:38:58;;;;;;;5.20;3.53;;;9.80;95.50;;;;;;5099690;28;20508;-45
2021/12/24 09:41:24;;;;;;;6.60;3.90;;;9.80;95.60;;;;;;5102971;28;20444;-42
2021/12/24 09:43:52;;;;;;;4.73;3.90;;;9.80;95.70;;;;;;5114706;28;20432;-43
2021/12/24 09:46:18;;;;;;;6.50;4.50;;;9.80;95.70;;;;;;5109930;28;20996;-43
2021/12/24 09:48:44;;;;;;;6.13;3.50;;;9.80;95.70;;;;;;5117618;28;20536;-45
2021/12/24 09:51:10;;;;;;;3.20;2.70;;;9.80;95.80;;;;;;5099589;28;20593;-43
2021/12/24 09:53:36;;;;;;;4.80;3.33;;;10.30;99.70;;;;;;5118148;28;20766;-43
2021/12/24 09:56:04;;;;;;;7.13;3.30;;;11.10;99.90;;;;;;5118772;28;20846;-43
2021/12/24 09:58:30;;;;;;;3.40;2.77;;;11.80;99.90;;;;;;5099937;28;20469;-44
2021/12/24 10:00:56;;;;;;;6.83;2.73;;;12.30;99.00;;;;;;5101215;28;20711;-46
2021/12/24 10:03:48;;;;;;;3.57;2.43;;;12.80;97.80;;;;;;5099937;28;20418;-42
2021/12/24 10:06:16;;;;;;;5.73;3.00;;;13.20;96.40;;;;;;5078343;28;20510;-43
2021/12/24 10:08:42;;;;;;;3.30;3.00;;;13.10;93.90;;;;;;5099217;28;20512;-42
2021/12/24 10:11:11;;;;;;;5.30;3.30;;;12.90;93.20;;;;;;5116840;28;20457;-43
2021/12/24 10:13:43;;;;;;;4.57;3.77;;;12.60;92.50;;;;;;5117457;28;20410;-42
2021/12/24 10:16:13;;;;;;;3.20;2.90;;;12.30;92.00;;;;;;5117185;28;20989;-43
2021/12/24 10:18:47;;;;;;;4.20;3.80;;;12.10;92.00;;;;;;5119537;27;20449;-44
2021/12/24 10:21:13;;;;;;;6.13;4.83;;;11.80;92.10;;;;;;5139283;27;20923;-44
2021/12/24 10:24:00;;;;;;;4.10;3.70;;;11.70;92.20;;;;;;5137249;27;20401;-43
2021/12/24 10:26:32;;;;;;;4.83;4.43;;;11.50;92.30;;;;;;5136945;27;20171;-42
2021/12/24 10:29:09;;;;;;;4.50;3.80;;;11.30;92.50;;;;;;5136310;27;20426;-42
2021/12/24 10:31:52;;;;;;;3.53;3.23;;;11.20;92.70;;;;;;5135301;28;20513;-44
2021/12/24 10:34:27;;;;;;;3.73;3.30;;;11.10;93.00;;;;;;5115849;28;20438;-41
2021/12/24 10:37:24;;;;;;;5.50;3.17;;;11.00;93.20;;;;;;5133200;28;20771;-42
2021/12/24 10:39:56;;;;;;;4.23;3.83;;;10.90;93.30;;;;;;5133834;28;20842;-43
2021/12/24 10:42:28;;;;;;;3.53;3.20;;;10.80;93.50;;;;;;5128329;27;20867;-42
2021/12/24 10:44:58;;;;;;;5.03;3.17;;;10.80;93.70;;;;;;5122632;28;20406;-42
2021/12/24 10:47:27;;;;;;;4.00;2.90;;;10.70;93.80;;;;;;5115211;28;20480;-42
2021/12/24 10:52:42;;;;;;;3.10;2.63;;;10.60;94.10;;;;;;5118147;28;20433;-41
2021/12/24 10:55:11;;;;;;;3.97;2.80;;;10.60;94.20;;;;;;5103932;28;20407;-42
2021/12/24 10:57:40;;;;;;;4.13;2.93;;;10.50;94.20;;;;;;5119079;28;20469;-42
2021/12/24 11:00:18;;;;;;;3.10;2.60;;;10.50;94.40;;;;;;5119622;28;20418;-42
2021/12/24 11:02:53;;;;;;;4.03;2.67;;;10.40;94.50;;;;;;5130369;27;20739;-40
2021/12/24 11:05:38;;;;;;;3.20;2.53;;;10.40;94.60;;;;;;5139010;27;20444;-41
2021/12/24 11:08:12;;;;;;;2.80;2.43;;;10.40;94.70;;;;;;5140895;27;20425;-41
2021/12/24 11:10:40;;;;;;;2.90;2.20;;;10.30;94.80;;;;;;5140620;27;20415;-43
2021/12/24 11:13:13;;;;;;;2.20;1.70;;;10.30;94.90;;;;;;5136852;27;20480;-42
2021/12/24 11:15:40;;;;;;;2.83;2.33;;;10.30;95.00;;;;;;5138822;27;20716;-42
2021/12/24 11:18:23;;;;;;;3.70;2.07;;;10.30;95.10;;;;;;5139048;27;20669;-42
2021/12/24 11:20:52;;;;;;;2.50;2.00;;;10.30;95.20;;;;;;5140948;27;20409;-43
2021/12/24 11:23:22;;;;;;;2.63;2.30;;;10.20;95.30;;;;;;5140421;27;20416;-42
2021/12/24 11:25:53;;;;;;;2.60;2.30;;;10.20;95.40;;;;;;5120897;27;20427;-41
2021/12/24 11:28:20;;;;;;;2.53;1.97;;;10.30;95.50;;;;;;5140045;27;20445;-42
2021/12/24 11:30:49;;;;;;;3.17;2.10;;;10.30;95.50;;;;;;5137815;27;20424;-42
2021/12/24 11:33:26;;;;;;;3.77;2.30;;;10.20;95.40;;;;;;5117936;28;20737;-42
2021/12/24 11:35:53;;;;;;;2.03;1.63;;;10.20;95.50;;;;;;5118104;28;20432;-42
2021/12/24 11:38:27;;;;;;;2.53;1.93;;;10.20;95.50;;;;;;5119246;28;20926;-42
2021/12/24 11:40:55;;;;;;;3.27;1.90;;;10.20;95.60;;;;;;5123999;27;20730;-41
2021/12/24 11:43:25;;;;;;;3.40;2.07;;;10.40;98.50;;;;;;5124420;27;20763;-40
2021/12/24 11:45:51;;;;;;;3.30;1.90;;;11.00;99.90;;;;;;5120195;28;20432;-40
2021/12/24 11:48:17;;;;;;;2.73;1.77;;;11.70;99.90;;;;;;5118721;28;20460;-41
2021/12/24 11:50:43;;;;;;;2.57;1.97;;;12.00;99.40;;;;;;5118928;28;20458;-40
2021/12/24 11:53:11;;;;;;;4.43;2.00;;;12.10;97.30;;;;;;5117615;28;20167;-41
2021/12/24 11:55:42;;;;;;;1.60;1.40;;;12.00;95.30;;;;;;5117417;28;20434;-42
2021/12/24 11:58:14;;;;;;;2.43;2.20;;;11.90;94.40;;;;;;5117677;28;20544;-41
2021/12/24 12:00:42;;;;;;;2.57;2.03;;;11.70;93.90;;;;;;5118391;28;20418;-41
2021/12/24 12:03:10;;;;;;;3.80;2.50;;;11.50;94.00;;;;;;5117061;28;20413;-40
2021/12/24 12:05:38;;;;;;;3.37;2.20;;;11.40;94.00;;;;;;5117708;28;20852;-42
2021/12/24 12:08:23;;;;;;;3.00;2.10;;;11.30;94.10;;;;;;5118117;28;20424;-42
2021/12/24 12:10:52;;;;;;;1.93;1.60;;;11.20;94.20;;;;;;5119591;28;20858;-43
2021/12/24 12:13:36;;;;;;;1.80;1.53;;;11.20;94.30;;;;;;5119004;28;20437;-42
2021/12/24 12:16:03;;;;;;;1.70;1.60;;;11.10;94.30;;;;;;5119296;28;20461;-41
2021/12/24 12:18:43;;;;;;;3.53;2.73;;;11.10;94.40;;;;;;5118913;28;20466;-44
2021/12/24 12:21:15;;;;;;;2.70;2.27;;;11.10;94.40;;;;;;5118547;28;20429;-43
2021/12/24 12:24:04;;;;;;;4.03;2.40;;;11.10;94.40;;;;;;5117770;28;20409;-42
2021/12/24 12:26:49;;;;;;;2.73;1.93;;;11.10;94.50;;;;;;5130174;27;20443;-41
2021/12/24 12:29:39;;;;;;;1.70;1.37;;;11.10;94.50;;;;;;5136150;27;20854;-42
2021/12/24 12:32:17;;;;;;;2.47;1.50;;;11.00;94.60;;;;;;5139821;27;20696;-42
2021/12/24 12:34:43;;;;;;;1.60;1.10;;;10.90;94.70;;;;;;5138865;27;20829;-42
2021/12/24 12:37:41;;;;;;;1.63;1.33;;;10.90;94.70;;;;;;5137951;27;20510;-41
2021/12/24 12:40:31;;;;;;;2.73;1.20;;;10.90;94.80;;;;;;5101636;28;20520;-41
2021/12/24 12:43:10;;;;;;;2.13;1.30;;;10.90;94.90;;;;;;5124041;27;20464;-41
2021/12/24 12:45:36;;;;;;;1.67;1.20;;;10.90;95.00;;;;;;5139416;27;20811;-43
2021/12/24 12:48:05;;;;;;;1.67;1.23;;;10.90;95.00;;;;;;5138136;27;20524;-42
2021/12/24 12:50:31;;;;;;;1.90;1.50;;;10.90;95.00;;;;;;5138382;27;20451;-42
2021/12/24 12:53:22;;;;;;;2.00;1.50;;;10.90;95.00;;;;;;5138170;27;20428;-42
2021/12/24 12:55:48;;;;;;;1.93;1.63;;;10.90;95.00;;;;;;5137703;27;20422;-42
2021/12/24 12:58:18;;;;;;;1.80;1.60;;;10.90;95.00;;;;;;5137616;27;20499;-41
2021/12/24 13:01:03;;;;;;;1.70;1.43;;;11.00;95.00;;;;;;5115235;28;20444;-41
2021/12/24 13:03:28;;;;;;;2.10;1.53;;;11.00;95.10;;;;;;5132388;27;20432;-41
2021/12/24 13:06:00;;;;;;;1.73;1.30;;;11.00;95.00;;;;;;5133415;27;20418;-41
2021/12/24 13:08:28;;;;;;;1.77;1.20;;;11.00;95.00;;;;;;5118659;28;20208;-41
2021/12/24 13:11:03;;;;;;;1.30;1.10;;;11.00;95.00;;;;;;5125228;27;20434;-43
2021/12/24 13:13:30;;;;;;;2.23;1.27;;;10.90;95.10;;;;;;5117859;28;20416;-42
2021/12/24 13:15:56;;;;;;;1.90;1.50;;;10.90;95.10;;;;;;5117428;28;20426;-42
2021/12/24 13:18:35;;;;;;;6.33;1.80;;;10.90;95.10;;;;;;5116674;28;20477;-42
2021/12/24 13:23:34;;;;;;;1.30;1.20;;;10.90;95.10;;;;;;5099407;28;20441;-39
2021/12/24 13:26:10;;;;;;;1.87;1.57;;;10.90;95.10;;;;;;5117499;28;21052;-40
2021/12/24 13:29:03;;;;;;;2.57;1.30;;;10.90;95.10;;;;;;5115749;28;20532;-42
2021/12/24 13:31:30;;;;;;;1.73;1.47;;;10.80;95.20;;;;;;5115181;28;20874;-41
2021/12/24 13:33:57;;;;;;;1.53;1.27;;;10.70;95.20;;;;;;5100621;27;20477;-42
2021/12/24 13:36:28;;;;;;;2.40;1.77;;;10.70;95.30;;;;;;5122475;27;20440;-41
2021/12/24 13:38:53;;;;;;;3.10;1.83;;;10.60;95.40;;;;;;5127344;27;20571;-42
2021/12/24 13:41:24;;;;;;;1.90;1.50;;;10.60;95.50;;;;;;5098523;28;20786;-42
2021/12/24 13:43:49;;;;;;;3.10;1.70;;;10.60;95.60;;;;;;5116000;28;20172;-42
2021/12/24 13:46:17;;;;;;;2.70;1.57;;;10.60;95.60;;;;;;5117181;28;20455;-42
2021/12/24 13:54:39;;;;;;;2.13;1.57;;;10.50;95.80;;;;;;5053394;28;20448;-40
2021/12/24 13:57:05;;;;;;;2.30;1.73;;;10.50;95.80;;;;;;5055289;28;20440;-40
2021/12/24 13:59:32;;;;;;;4.20;1.87;;;10.50;95.80;;;;;;5083816;28;20227;-42
2021/12/24 14:01:58;;;;;;;2.30;1.80;;;10.50;95.90;;;;;;5117536;28;20660;-41
2021/12/24 14:04:23;;;;;;;2.10;1.70;;;10.50;95.90;;;;;;5114581;28;20437;-41
2021/12/24 14:06:56;;;;;;;1.77;1.30;;;10.50;95.90;;;;;;5115221;28;20414;-42
2021/12/24 14:09:32;;;;;;;6.10;1.87;;;10.50;95.90;;;;;;5099296;28;20429;-45
2021/12/24 14:12:00;;;;;;;4.40;1.40;;;11.90;99.90;;;;;;5082780;28;20419;-43
2021/12/24 14:14:41;;;;;;;2.13;1.27;;;13.50;99.60;;;;;;5116504;28;20466;-43
2021/12/24 14:22:20;;;;;;;3.50;1.70;;;13.10;93.00;;;;;;5099112;28;20846;-41
2021/12/24 14:24:53;;;;;;;2.03;1.50;;;12.80;92.80;;;;;;5098899;28;20429;-42
2021/12/24 14:27:20;;;;;;;2.20;1.53;;;12.50;92.70;;;;;;5099950;28;20688;-42
2021/12/24 14:29:53;;;;;;;2.10;1.23;;;12.20;92.80;;;;;;5100321;28;20422;-45
2021/12/24 14:32:37;;;;;;;2.00;1.70;;;12.00;92.90;;;;;;5118617;28;20417;-43
2021/12/24 14:35:15;;;;;;;2.20;1.80;;;11.80;93.10;;;;;;5117971;28;20432;-43
2021/12/24 14:37:42;;;;;;;2.43;1.87;;;11.60;93.30;;;;;;5117162;28;20452;-42
2021/12/24 14:40:07;;;;;;;1.93;1.33;;;11.60;93.50;;;;;;5099982;28;20433;-44
2021/12/24 14:42:37;;;;;;;2.30;1.97;;;11.50;93.70;;;;;;5117876;28;20406;-41
2021/12/24 14:45:25;;;;;;;4.80;1.60;;;11.40;93.80;;;;;;5117469;28;20197;-42
2021/12/24 14:48:01;;;;;;;1.73;1.57;;;11.30;93.80;;;;;;5099232;28;20883;-42
2021/12/24 14:50:29;;;;;;;2.33;1.83;;;11.20;94.00;;;;;;5098807;28;20859;-42
2021/12/24 14:53:09;;;;;;;2.60;1.57;;;11.20;94.20;;;;;;5097474;28;20443;-42
2021/12/24 14:56:00;;;;;;;2.37;1.77;;;11.10;94.30;;;;;;5116371;28;20429;-42